Time;durP1;ratioP1;P1;durP2;ratioP2;P2;SDS_P1;SDS_P2;PMS_P1;PMS_P2;Temp;Humidity;BMP_temperature;BMP_pressure;BME280_temperature;BME280_humidity;BME280_pressure;Samples;Min_cycle;Max_cycle;Signal;HPM_P1;HPM_P2
2022/10/07 00:00:15;;;;;;;3.40;0.80;;;10.00;99.90;;;;;;5033824;28;20148;-67
2022/10/07 00:02:41;;;;;;;2.80;0.80;;;10.00;99.90;;;;;;5033929;28;20043;-67
2022/10/07 00:05:07;;;;;;;1.05;0.63;;;10.00;99.90;;;;;;5033979;28;20473;-69
2022/10/07 00:07:32;;;;;;;1.52;0.68;;;9.90;99.90;;;;;;5016235;28;20045;-66
2022/10/07 00:09:58;;;;;;;1.58;1.00;;;9.90;99.90;;;;;;5033887;28;20052;-67
2022/10/07 00:12:24;;;;;;;7.05;1.02;;;9.80;99.90;;;;;;5033921;28;20403;-66
2022/10/07 00:14:50;;;;;;;2.67;0.88;;;9.90;99.90;;;;;;5033580;28;20048;-67
2022/10/07 00:17:15;;;;;;;4.63;0.85;;;9.80;99.90;;;;;;5033260;28;20045;-67
2022/10/07 00:19:41;;;;;;;1.95;0.77;;;9.90;99.90;;;;;;5016119;28;20128;-66
2022/10/07 00:22:08;;;;;;;2.55;1.00;;;9.80;99.90;;;;;;5033365;28;20049;-66
2022/10/07 00:24:33;;;;;;;1.38;0.90;;;9.80;99.90;;;;;;5033680;28;20037;-67
2022/10/07 00:26:59;;;;;;;1.70;1.02;;;10.30;99.90;;;;;;5015541;28;20049;-67
2022/10/07 00:29:25;;;;;;;3.78;1.10;;;9.70;99.90;;;;;;5033310;28;20040;-66
2022/10/07 00:31:50;;;;;;;2.55;1.02;;;9.70;99.90;;;;;;5033506;28;20093;-67
2022/10/07 00:34:16;;;;;;;0.73;0.73;;;9.70;99.90;;;;;;5033782;28;20056;-67
2022/10/07 00:36:42;;;;;;;1.48;0.95;;;9.70;99.90;;;;;;5033417;28;20477;-66
2022/10/07 00:39:11;;;;;;;5.50;1.67;;;9.80;99.90;;;;;;4998951;28;20037;-66
2022/10/07 00:41:39;;;;;;;3.03;1.00;;;9.70;99.90;;;;;;5032881;28;20088;-66
2022/10/07 00:44:26;;;;;;;3.85;1.02;;;9.70;99.90;;;;;;5033204;28;20041;-67
2022/10/07 00:46:54;;;;;;;3.38;1.10;;;9.70;99.90;;;;;;5014290;28;20045;-66
2022/10/07 00:49:20;;;;;;;5.32;1.58;;;9.70;99.90;;;;;;5032896;28;20052;-67
2022/10/07 00:51:49;;;;;;;3.25;0.75;;;9.60;99.90;;;;;;5033108;28;20050;-66
2022/10/07 00:54:17;;;;;;;2.88;1.15;;;9.70;99.90;;;;;;4999046;28;20448;-67
2022/10/07 00:56:45;;;;;;;6.07;1.05;;;9.60;99.90;;;;;;5032986;28;20037;-67
2022/10/07 00:59:13;;;;;;;1.95;1.05;;;9.90;99.90;;;;;;5033000;28;20073;-66
2022/10/07 01:01:40;;;;;;;2.80;1.15;;;9.60;99.90;;;;;;5032836;28;20120;-66
2022/10/07 01:04:08;;;;;;;2.45;1.00;;;9.60;99.90;;;;;;5014817;28;20087;-67
2022/10/07 01:06:37;;;;;;;2.22;1.27;;;9.60;99.90;;;;;;5014801;28;20116;-67
2022/10/07 01:09:03;;;;;;;3.25;1.00;;;9.60;99.90;;;;;;5015092;28;20505;-67
2022/10/07 01:11:51;;;;;;;5.20;1.20;;;9.60;99.90;;;;;;5032507;28;20056;-66
2022/10/07 01:14:47;;;;;;;4.57;1.10;;;9.60;99.90;;;;;;5014963;28;20123;-66
2022/10/07 01:17:41;;;;;;;2.55;1.05;;;9.50;99.90;;;;;;5032397;28;20538;-66
2022/10/07 01:20:27;;;;;;;4.50;1.05;;;9.60;99.90;;;;;;5032590;28;20049;-66
2022/10/07 01:23:01;;;;;;;2.72;0.90;;;9.60;99.90;;;;;;5014547;28;20049;-66
2022/10/07 01:26:03;;;;;;;2.92;1.02;;;9.60;99.90;;;;;;5014786;28;20526;-66
2022/10/07 01:28:46;;;;;;;1.83;1.13;;;9.60;99.90;;;;;;5032511;28;20041;-66
2022/10/07 01:31:16;;;;;;;5.38;1.30;;;9.60;99.90;;;;;;5032176;28;20041;-66
2022/10/07 01:33:43;;;;;;;4.72;1.38;;;9.60;99.90;;;;;;5032484;28;20087;-66
2022/10/07 01:36:14;;;;;;;3.10;0.95;;;9.80;99.90;;;;;;5014984;28;20481;-67
2022/10/07 01:38:44;;;;;;;5.65;1.08;;;9.60;99.90;;;;;;5032117;28;20048;-66
2022/10/07 01:41:14;;;;;;;3.53;1.20;;;9.60;99.90;;;;;;5014477;28;20408;-66
2022/10/07 01:43:41;;;;;;;2.50;1.27;;;9.60;99.90;;;;;;5032255;28;20434;-66
2022/10/07 01:46:09;;;;;;;3.83;1.08;;;9.60;99.90;;;;;;5032197;28;20042;-66
2022/10/07 01:48:35;;;;;;;6.68;1.50;;;9.70;99.90;;;;;;5032320;28;20041;-66
2022/10/07 01:51:01;;;;;;;3.10;1.25;;;9.70;99.90;;;;;;5032271;28;20087;-66
2022/10/07 01:53:44;;;;;;;1.25;0.82;;;9.70;99.90;;;;;;5014508;28;20052;-66
2022/10/07 01:56:09;;;;;;;3.85;1.27;;;9.70;99.90;;;;;;5032202;28;20139;-66
2022/10/07 01:58:59;;;;;;;3.47;1.58;;;9.80;99.90;;;;;;5033787;28;20284;-66
2022/10/07 02:01:46;;;;;;;5.50;1.00;;;9.70;99.90;;;;;;5036250;28;20052;-66
2022/10/07 02:04:15;;;;;;;4.72;1.27;;;9.70;99.90;;;;;;5001980;28;20052;-66
2022/10/07 02:06:50;;;;;;;3.85;1.67;;;9.70;99.90;;;;;;5036251;28;20183;-67
2022/10/07 02:09:44;;;;;;;6.13;1.40;;;9.70;99.90;;;;;;5036192;28;20464;-66
2022/10/07 02:12:36;;;;;;;4.55;1.38;;;9.70;99.90;;;;;;5018479;28;20046;-66
2022/10/07 02:15:25;;;;;;;3.50;1.40;;;9.60;99.90;;;;;;5018321;28;20057;-66
2022/10/07 02:17:54;;;;;;;3.05;1.20;;;9.60;99.90;;;;;;5035594;28;20064;-66
2022/10/07 02:20:24;;;;;;;4.10;1.30;;;9.60;99.90;;;;;;5035946;28;20052;-66
2022/10/07 02:22:51;;;;;;;3.92;1.08;;;9.80;99.90;;;;;;5017848;28;20041;-66
2022/10/07 02:25:20;;;;;;;2.47;1.20;;;9.60;99.90;;;;;;5035586;28;20072;-66
2022/10/07 02:27:50;;;;;;;3.22;1.45;;;9.50;99.90;;;;;;5017649;28;20080;-66
2022/10/07 02:30:18;;;;;;;2.80;1.20;;;9.60;99.90;;;;;;5035502;28;20057;-66
2022/10/07 02:32:53;;;;;;;2.58;0.95;;;9.50;99.90;;;;;;5017700;28;20077;-66
2022/10/07 02:35:36;;;;;;;6.57;1.55;;;9.50;99.90;;;;;;5035747;28;20071;-66
2022/10/07 02:38:08;;;;;;;7.07;1.40;;;9.50;99.90;;;;;;5035588;28;20145;-66
2022/10/07 02:40:50;;;;;;;1.83;1.20;;;9.50;99.90;;;;;;5035339;28;20073;-67
2022/10/07 02:43:30;;;;;;;4.15;1.77;;;9.40;99.90;;;;;;5035087;28;20045;-66
2022/10/07 02:46:15;;;;;;;2.30;1.35;;;9.40;99.90;;;;;;5035522;28;20048;-66
2022/10/07 02:48:51;;;;;;;4.28;1.00;;;9.40;99.90;;;;;;5035406;28;20366;-68
2022/10/07 02:51:21;;;;;;;3.47;1.20;;;9.40;99.90;;;;;;5035123;28;20037;-67
2022/10/07 02:53:50;;;;;;;2.47;1.65;;;9.30;99.90;;;;;;5035082;28;20517;-66
2022/10/07 02:56:18;;;;;;;5.78;1.38;;;9.30;99.90;;;;;;5035264;28;20090;-66
2022/10/07 02:58:46;;;;;;;8.40;1.30;;;9.30;99.90;;;;;;5035278;28;20061;-66
2022/10/07 03:01:16;;;;;;;6.57;1.52;;;9.30;99.90;;;;;;5035188;28;20468;-66
2022/10/07 03:03:45;;;;;;;5.03;1.63;;;9.30;99.90;;;;;;5035293;28;20116;-66
2022/10/07 03:06:12;;;;;;;3.15;1.08;;;9.30;99.90;;;;;;5035171;28;20076;-66
2022/10/07 03:08:39;;;;;;;4.47;1.65;;;9.30;99.90;;;;;;5034706;28;20064;-66
2022/10/07 03:11:05;;;;;;;2.08;1.00;;;9.20;99.90;;;;;;5033845;28;20042;-66
2022/10/07 03:13:30;;;;;;;3.67;1.00;;;9.20;99.90;;;;;;5034692;28;20144;-67
2022/10/07 03:15:56;;;;;;;2.75;1.00;;;9.20;99.90;;;;;;5035010;28;20045;-67
2022/10/07 03:18:28;;;;;;;5.82;1.48;;;8.90;99.90;;;;;;5034448;28;20092;-66
2022/10/07 03:20:55;;;;;;;6.20;1.73;;;9.70;99.90;;;;;;5034896;28;20084;-67
2022/10/07 03:23:22;;;;;;;3.03;1.30;;;9.10;99.90;;;;;;5034801;28;20033;-66
2022/10/07 03:25:53;;;;;;;2.00;1.08;;;9.10;99.90;;;;;;5034519;28;20044;-66
2022/10/07 03:28:20;;;;;;;;;;;9.10;99.90;;;;;;5035158;28;20130;-66
2022/10/07 03:30:47;;;;;;;1.85;1.25;;;9.20;99.90;;;;;;5034727;28;19928;-66
2022/10/07 03:33:14;;;;;;;2.35;1.08;;;9.10;99.90;;;;;;5034590;28;20045;-67
2022/10/07 03:35:39;;;;;;;2.65;1.38;;;9.10;99.90;;;;;;5034664;28;20042;-66
2022/10/07 03:38:08;;;;;;;3.28;1.00;;;9.10;99.90;;;;;;5016509;28;20504;-66
2022/10/07 03:40:34;;;;;;;7.05;1.38;;;9.10;99.90;;;;;;5034545;28;20045;-67
2022/10/07 03:43:01;;;;;;;4.07;1.20;;;9.20;99.90;;;;;;5016576;28;20044;-66
2022/10/07 03:45:29;;;;;;;1.52;1.02;;;9.10;99.90;;;;;;5016342;28;20147;-66
2022/10/07 03:47:55;;;;;;;3.17;1.27;;;9.00;99.90;;;;;;5034126;28;20041;-66
2022/10/07 03:50:21;;;;;;;6.15;1.48;;;9.10;99.90;;;;;;5034354;28;20048;-66
2022/10/07 03:52:47;;;;;;;5.75;1.55;;;9.10;99.90;;;;;;5034236;28;20052;-66
2022/10/07 03:55:13;;;;;;;4.18;1.20;;;8.80;99.90;;;;;;5033970;28;20049;-66
2022/10/07 03:57:51;;;;;;;2.97;1.38;;;9.10;99.90;;;;;;5016137;28;20502;-67
2022/10/07 04:00:19;;;;;;;5.78;1.33;;;9.10;99.90;;;;;;5033780;28;20041;-66
2022/10/07 04:02:49;;;;;;;5.57;1.60;;;9.10;99.90;;;;;;5033976;28;20099;-67
2022/10/07 04:05:16;;;;;;;3.45;1.52;;;9.10;99.90;;;;;;5033722;28;20037;-66
2022/10/07 04:07:44;;;;;;;4.75;1.73;;;9.00;99.90;;;;;;5034011;28;20044;-67
2022/10/07 04:10:10;;;;;;;2.88;1.38;;;9.10;99.90;;;;;;5016172;28;20041;-66
2022/10/07 04:12:36;;;;;;;2.53;0.95;;;9.20;99.90;;;;;;5033854;28;20147;-66
2022/10/07 04:15:03;;;;;;;3.83;1.45;;;9.10;99.90;;;;;;5015848;28;20093;-68
2022/10/07 04:17:28;;;;;;;4.60;1.40;;;9.10;99.90;;;;;;5015628;28;20057;-68
2022/10/07 04:19:54;;;;;;;7.43;1.35;;;8.90;99.90;;;;;;5033700;28;20049;-66
2022/10/07 04:22:19;;;;;;;3.75;1.40;;;9.10;99.90;;;;;;5033452;28;20124;-67
2022/10/07 04:25:32;;;;;;;7.93;1.75;;;9.10;99.90;;;;;;5015876;28;20085;-66
2022/10/07 04:27:31;;;;;;;3.83;1.42;;;9.10;99.90;;;;;;5015530;28;20050;-66
2022/10/07 04:29:56;;;;;;;2.58;1.45;;;9.00;99.90;;;;;;5015754;28;20041;-66
2022/10/07 04:32:22;;;;;;;5.53;1.45;;;9.10;99.90;;;;;;5033478;28;20041;-66
2022/10/07 04:34:51;;;;;;;3.75;1.05;;;9.10;99.90;;;;;;5033150;28;20496;-67
2022/10/07 04:37:17;;;;;;;2.40;1.20;;;9.10;99.90;;;;;;5033109;28;20053;-66
2022/10/07 04:39:42;;;;;;;8.27;1.40;;;9.10;99.90;;;;;;5033360;28;20390;-67
2022/10/07 04:43:17;;;;;;;4.47;1.50;;;9.10;99.90;;;;;;5033037;28;20048;-66
2022/10/07 04:44:54;;;;;;;8.15;1.63;;;9.00;99.90;;;;;;5015302;28;20485;-67
2022/10/07 04:47:19;;;;;;;2.65;1.48;;;9.20;99.90;;;;;;5033241;28;20046;-67
2022/10/07 04:49:45;;;;;;;3.83;1.75;;;9.00;99.90;;;;;;5032965;28;20065;-67
2022/10/07 04:52:11;;;;;;;3.47;1.35;;;9.00;99.90;;;;;;5033163;28;20034;-66
2022/10/07 04:54:38;;;;;;;3.35;1.60;;;9.00;99.90;;;;;;5033058;28;20489;-66
2022/10/07 04:57:04;;;;;;;3.72;1.52;;;9.00;99.90;;;;;;5033112;28;20077;-67
2022/10/07 04:59:30;;;;;;;5.88;1.90;;;9.00;99.90;;;;;;5015206;28;20037;-66
2022/10/07 05:01:56;;;;;;;10.05;1.90;;;9.00;99.90;;;;;;5032502;28;20049;-66
2022/10/07 05:04:22;;;;;;;3.83;1.75;;;9.00;99.90;;;;;;5014868;28;20044;-67
2022/10/07 05:06:48;;;;;;;8.48;1.98;;;9.20;99.90;;;;;;5032668;28;20033;-66
2022/10/07 05:09:14;;;;;;;4.85;1.90;;;9.00;99.90;;;;;;5032551;28;20069;-66
2022/10/07 05:11:39;;;;;;;3.65;1.58;;;9.40;99.90;;;;;;5032528;28;20124;-67
2022/10/07 05:14:05;;;;;;;4.43;1.40;;;9.00;99.90;;;;;;5032487;28;20037;-68
2022/10/07 05:16:31;;;;;;;7.20;1.58;;;9.00;99.90;;;;;;5032299;28;20050;-66
2022/10/07 05:18:56;;;;;;;12.00;1.75;;;9.00;99.90;;;;;;5014649;28;20508;-66
2022/10/07 05:21:22;;;;;;;1.67;1.15;;;9.00;99.90;;;;;;5032210;28;20496;-66
2022/10/07 05:23:48;;;;;;;4.10;1.50;;;8.80;99.90;;;;;;5032674;28;20060;-66
2022/10/07 05:26:14;;;;;;;3.33;1.27;;;9.00;99.90;;;;;;5032572;28;20076;-67
2022/10/07 05:28:40;;;;;;;6.90;1.90;;;9.00;99.90;;;;;;5014818;28;20041;-66
2022/10/07 05:31:11;;;;;;;4.25;2.95;;;9.00;99.90;;;;;;5032240;28;20467;-66
2022/10/07 05:33:38;;;;;;;3.85;1.73;;;8.90;99.90;;;;;;5013896;28;20037;-67
2022/10/07 05:36:06;;;;;;;4.15;1.77;;;8.90;99.90;;;;;;5014512;28;20041;-67
2022/10/07 05:38:32;;;;;;;3.95;1.98;;;8.90;99.90;;;;;;5032411;28;20045;-67
2022/10/07 05:41:03;;;;;;;7.25;2.13;;;8.90;99.90;;;;;;5032126;28;20040;-67
2022/10/07 05:43:32;;;;;;;4.03;1.35;;;9.00;99.90;;;;;;5032222;28;20045;-66
2022/10/07 05:46:03;;;;;;;4.15;2.00;;;9.00;99.90;;;;;;5031978;28;20037;-67
2022/10/07 05:48:31;;;;;;;7.72;1.83;;;9.00;99.90;;;;;;5032175;28;20045;-66
2022/10/07 05:50:57;;;;;;;2.83;1.75;;;9.00;99.90;;;;;;5032227;28;20084;-66
2022/10/07 05:53:24;;;;;;;7.30;1.48;;;9.10;99.90;;;;;;5031975;28;20124;-65
2022/10/07 05:55:50;;;;;;;4.28;1.65;;;9.00;99.90;;;;;;5014543;28;20057;-66
2022/10/07 05:58:16;;;;;;;3.97;1.60;;;9.00;99.90;;;;;;5032158;28;20045;-64
2022/10/07 06:00:54;;;;;;;5.00;1.88;;;9.00;99.90;;;;;;5032090;28;20056;-65
2022/10/07 06:03:21;;;;;;;4.45;1.65;;;9.00;99.90;;;;;;5032003;28;20515;-65
2022/10/07 06:05:51;;;;;;;6.35;1.92;;;9.00;99.90;;;;;;5014459;28;20095;-64
2022/10/07 06:08:19;;;;;;;6.20;1.50;;;9.10;99.90;;;;;;5014278;28;20053;-65
2022/10/07 06:13:34;;;;;;;7.65;1.95;;;9.10;99.90;;;;;;5032053;28;20400;-66
2022/10/07 06:16:05;;;;;;;6.75;2.28;;;9.10;99.90;;;;;;5031960;28;20047;-66
2022/10/07 06:18:31;;;;;;;2.45;1.75;;;9.10;99.90;;;;;;5031605;28;20088;-66
2022/10/07 06:20:59;;;;;;;5.95;1.83;;;9.20;99.90;;;;;;5031644;28;20497;-67
2022/10/07 06:23:26;;;;;;;3.30;1.80;;;9.20;99.90;;;;;;5031874;28;20049;-66
2022/10/07 06:25:56;;;;;;;5.00;1.55;;;9.20;99.90;;;;;;5031948;28;20048;-66
2022/10/07 06:28:22;;;;;;;3.97;1.60;;;9.20;99.90;;;;;;5031903;28;20435;-67
2022/10/07 06:30:49;;;;;;;6.78;2.03;;;9.30;99.90;;;;;;5031820;28;20042;-66
2022/10/07 06:33:18;;;;;;;4.07;1.67;;;9.30;99.90;;;;;;5031595;28;20044;-66
2022/10/07 06:35:45;;;;;;;5.72;1.70;;;9.30;99.90;;;;;;5031826;28;20582;-66
2022/10/07 06:38:11;;;;;;;7.28;1.80;;;9.30;99.90;;;;;;5031498;28;20121;-66
2022/10/07 06:40:37;;;;;;;7.28;1.90;;;9.40;99.90;;;;;;5031470;28;20120;-67
2022/10/07 06:43:03;;;;;;;6.78;1.42;;;9.40;99.90;;;;;;5031439;28;20088;-66
2022/10/07 06:45:31;;;;;;;3.35;1.50;;;9.40;99.90;;;;;;5034528;28;20073;-66
2022/10/07 06:47:56;;;;;;;5.43;1.60;;;9.40;99.90;;;;;;5035481;28;20386;-67
2022/10/07 06:50:23;;;;;;;4.55;1.90;;;9.50;99.90;;;;;;5017767;28;20068;-67
2022/10/07 06:52:49;;;;;;;3.85;1.80;;;9.60;99.90;;;;;;5035345;28;20096;-67
2022/10/07 06:55:16;;;;;;;3.50;1.50;;;9.50;99.90;;;;;;5035426;28;20527;-67
2022/10/07 06:57:42;;;;;;;5.90;1.52;;;9.60;99.90;;;;;;5035428;28;20507;-66
2022/10/07 07:00:09;;;;;;;8.57;2.05;;;9.70;99.90;;;;;;5035234;28;20037;-66
2022/10/07 07:02:35;;;;;;;5.15;1.70;;;9.70;99.90;;;;;;5035147;28;20599;-67
2022/10/07 07:05:03;;;;;;;2.58;1.35;;;9.80;99.90;;;;;;5034705;28;20088;-67
2022/10/07 07:07:29;;;;;;;3.95;1.70;;;9.80;99.90;;;;;;5034627;28;20048;-66
2022/10/07 07:09:55;;;;;;;9.10;1.98;;;10.00;99.90;;;;;;5034945;28;20543;-67
2022/10/07 07:12:24;;;;;;;9.55;1.80;;;9.90;99.90;;;;;;5034493;28;20045;-67
2022/10/07 07:14:50;;;;;;;4.78;1.60;;;10.00;99.90;;;;;;5034643;28;20423;-67
2022/10/07 07:17:16;;;;;;;10.10;1.42;;;10.10;99.90;;;;;;5034496;28;20061;-67
2022/10/07 07:19:42;;;;;;;3.95;1.42;;;10.20;99.90;;;;;;5034472;28;20061;-67
2022/10/07 07:22:08;;;;;;;3.63;1.58;;;10.30;99.90;;;;;;5034310;28;20045;-67
2022/10/07 07:24:33;;;;;;;2.42;1.27;;;10.50;99.90;;;;;;5016596;28;20049;-67
2022/10/07 07:26:59;;;;;;;3.20;1.58;;;10.40;99.90;;;;;;5034306;28;20037;-67
2022/10/07 07:29:25;;;;;;;2.97;1.77;;;10.40;99.90;;;;;;5034520;28;20052;-66
2022/10/07 07:31:51;;;;;;;4.25;1.35;;;10.40;99.90;;;;;;5034596;28;20120;-66
2022/10/07 07:34:17;;;;;;;5.55;1.55;;;10.50;99.90;;;;;;5034404;28;20045;-66
2022/10/07 07:36:46;;;;;;;4.30;1.58;;;10.50;99.90;;;;;;5034307;28;20049;-67
2022/10/07 07:39:14;;;;;;;5.43;1.70;;;10.50;99.90;;;;;;5034594;28;20135;-66
2022/10/07 07:41:45;;;;;;;2.30;1.08;;;10.60;99.90;;;;;;5016745;28;20041;-67
2022/10/07 07:44:13;;;;;;;4.35;1.25;;;10.70;99.90;;;;;;5034210;28;20037;-66
2022/10/07 07:46:42;;;;;;;6.43;1.80;;;10.80;99.90;;;;;;5016358;28;20049;-67
2022/10/07 07:49:09;;;;;;;6.22;1.80;;;10.90;99.90;;;;;;5016559;28;20041;-67
2022/10/07 07:51:36;;;;;;;2.78;1.55;;;11.00;99.90;;;;;;5034360;28;20033;-66
2022/10/07 07:54:02;;;;;;;4.60;1.70;;;11.20;99.90;;;;;;5034242;28;20045;-66
2022/10/07 07:56:30;;;;;;;6.18;1.58;;;11.30;99.90;;;;;;5033575;28;20473;-66
2022/10/07 07:58:56;;;;;;;7.20;1.73;;;11.40;99.90;;;;;;5034187;28;20033;-66
2022/10/07 08:01:22;;;;;;;4.45;1.60;;;11.50;99.90;;;;;;5034035;28;20536;-66
2022/10/07 08:03:48;;;;;;;4.63;1.77;;;11.60;99.90;;;;;;5016401;28;20120;-66
2022/10/07 08:06:18;;;;;;;3.13;1.20;;;11.70;99.90;;;;;;5016050;28;20045;-66
2022/10/07 08:08:44;;;;;;;7.28;1.23;;;11.70;99.90;;;;;;5016235;28;20052;-66
2022/10/07 08:11:14;;;;;;;3.03;1.00;;;11.80;99.90;;;;;;5015935;28;20044;-66
2022/10/07 08:13:40;;;;;;;5.53;1.00;;;11.90;99.90;;;;;;5033602;28;20041;-66
2022/10/07 08:16:12;;;;;;;10.75;1.30;;;12.00;99.90;;;;;;5034071;28;20057;-67
2022/10/07 08:18:42;;;;;;;5.15;1.33;;;12.30;99.90;;;;;;5033743;28;20053;-66
2022/10/07 08:21:09;;;;;;;3.55;1.38;;;12.20;99.90;;;;;;5033684;28;20037;-65
2022/10/07 08:23:36;;;;;;;2.38;1.00;;;12.30;99.90;;;;;;5033311;28;20081;-65
2022/10/07 08:26:03;;;;;;;2.60;1.02;;;12.30;99.90;;;;;;5015865;28;20049;-66
2022/10/07 08:28:30;;;;;;;4.30;1.33;;;12.40;99.90;;;;;;5033513;28;20037;-65
2022/10/07 08:31:01;;;;;;;3.15;0.90;;;12.40;99.90;;;;;;5033601;28;20145;-65
2022/10/07 08:33:31;;;;;;;1.38;0.75;;;12.40;99.90;;;;;;5015695;28;20064;-65
2022/10/07 08:35:58;;;;;;;2.17;1.15;;;12.40;99.90;;;;;;5033212;28;20049;-65
2022/10/07 08:38:28;;;;;;;6.82;1.50;;;12.40;99.90;;;;;;5033436;28;20091;-65
2022/10/07 08:40:53;;;;;;;1.48;1.00;;;12.50;99.90;;;;;;4999345;28;20041;-65
2022/10/07 08:43:22;;;;;;;2.25;1.00;;;12.60;99.90;;;;;;5033158;28;20038;-65
2022/10/07 08:45:51;;;;;;;3.20;1.10;;;12.70;99.90;;;;;;5033163;28;20513;-64
2022/10/07 08:48:27;;;;;;;1.02;0.85;;;12.70;99.90;;;;;;5032890;28;20052;-64
2022/10/07 08:50:57;;;;;;;4.30;0.88;;;12.80;99.90;;;;;;5033243;28;20034;-65
2022/10/07 08:53:32;;;;;;;4.57;1.40;;;12.90;99.90;;;;;;5015093;28;20115;-65
2022/10/07 08:56:19;;;;;;;5.10;0.90;;;12.90;99.90;;;;;;5033050;28;20109;-64
2022/10/07 08:58:54;;;;;;;3.90;1.20;;;13.00;99.90;;;;;;5032733;28;20124;-64
2022/10/07 09:01:54;;;;;;;3.15;0.93;;;13.00;99.90;;;;;;5032710;28;20064;-65
2022/10/07 09:04:42;;;;;;;1.45;0.77;;;13.00;99.90;;;;;;5015165;28;20048;-65
2022/10/07 09:07:24;;;;;;;3.45;0.93;;;13.10;99.90;;;;;;5032278;28;20045;-65
2022/10/07 09:10:02;;;;;;;4.63;1.27;;;13.10;99.90;;;;;;5032532;28;20111;-65
2022/10/07 09:12:33;;;;;;;2.13;0.98;;;13.10;99.80;;;;;;5014978;28;20377;-66
2022/10/07 09:15:01;;;;;;;3.35;1.42;;;13.20;99.90;;;;;;5032440;28;20045;-65
2022/10/07 09:17:34;;;;;;;7.57;1.35;;;13.20;99.90;;;;;;5032171;28;20080;-67
2022/10/07 09:20:09;;;;;;;1.50;0.77;;;13.30;99.90;;;;;;5032621;28;20050;-64
2022/10/07 09:22:38;;;;;;;7.07;1.58;;;13.40;99.90;;;;;;5014807;28;20037;-65
2022/10/07 09:25:20;;;;;;;6.95;0.88;;;13.50;99.90;;;;;;5032165;28;20124;-64
2022/10/07 09:27:47;;;;;;;3.15;1.17;;;13.50;99.90;;;;;;5032258;28;20118;-65
2022/10/07 09:30:14;;;;;;;5.18;1.10;;;13.50;99.90;;;;;;5014529;28;20116;-65
2022/10/07 09:32:44;;;;;;;3.63;0.93;;;13.60;99.90;;;;;;5032230;28;20086;-64
2022/10/07 09:35:18;;;;;;;10.73;1.42;;;13.60;99.90;;;;;;5032417;28;20033;-65
2022/10/07 09:37:54;;;;;;;2.95;1.05;;;13.80;99.90;;;;;;5032087;28;20046;-64
2022/10/07 09:40:22;;;;;;;2.17;1.15;;;13.80;99.90;;;;;;5014244;28;20041;-65
2022/10/07 09:42:48;;;;;;;1.30;0.80;;;13.90;99.90;;;;;;5014268;28;20076;-64
2022/10/07 09:45:27;;;;;;;2.40;1.05;;;14.00;99.80;;;;;;4998177;28;20036;-65
2022/10/07 09:47:57;;;;;;;4.45;1.10;;;14.10;99.90;;;;;;5014509;28;20477;-64
2022/10/07 09:50:45;;;;;;;5.10;1.73;;;14.20;99.70;;;;;;5031993;28;20068;-65
2022/10/07 09:53:20;;;;;;;3.20;1.25;;;14.20;99.80;;;;;;5032153;28;20095;-64
2022/10/07 09:55:46;;;;;;;6.75;1.20;;;14.20;99.60;;;;;;5031968;28;20053;-65
2022/10/07 09:58:29;;;;;;;3.00;0.95;;;14.30;99.50;;;;;;5014405;28;20099;-65
2022/10/07 10:01:00;;;;;;;7.07;1.15;;;14.40;99.90;;;;;;5032154;28;20077;-65
2022/10/07 10:03:34;;;;;;;2.13;1.20;;;14.50;98.90;;;;;;5031807;28;20053;-65
2022/10/07 10:06:03;;;;;;;7.65;1.52;;;14.60;99.00;;;;;;5032175;28;20508;-65
2022/10/07 10:08:35;;;;;;;8.45;1.17;;;14.70;99.50;;;;;;5014050;28;20047;-65
2022/10/07 10:11:19;;;;;;;7.03;1.25;;;14.90;98.80;;;;;;5032076;28;20535;-65
2022/10/07 10:13:50;;;;;;;2.15;0.88;;;15.00;99.30;;;;;;5014127;28;20056;-64
2022/10/07 10:16:24;;;;;;;4.07;1.20;;;15.20;99.00;;;;;;5031798;28;20045;-61
2022/10/07 10:19:02;;;;;;;2.63;0.65;;;15.50;99.30;;;;;;5032315;28;20077;-61
2022/10/07 10:21:29;;;;;;;4.22;0.90;;;15.60;97.40;;;;;;5035852;28;20080;-63
2022/10/07 10:23:57;;;;;;;3.08;0.82;;;15.60;97.30;;;;;;5035988;28;20045;-63
2022/10/07 10:26:45;;;;;;;3.10;1.10;;;15.80;96.50;;;;;;5017951;28;20038;-63
2022/10/07 10:29:34;;;;;;;6.85;1.02;;;15.80;97.10;;;;;;5035543;28;20045;-64
2022/10/07 10:32:00;;;;;;;3.33;0.68;;;15.80;95.40;;;;;;5017976;28;20132;-63
2022/10/07 10:34:44;;;;;;;9.15;0.88;;;15.80;95.00;;;;;;5035409;28;20132;-64
2022/10/07 10:37:15;;;;;;;3.63;0.88;;;15.90;95.30;;;;;;5035673;28;20041;-65
2022/10/07 10:40:16;;;;;;;7.30;1.05;;;16.00;96.10;;;;;;5035420;28;20042;-65
2022/10/07 10:42:43;;;;;;;;;;;16.10;95.30;;;;;;5018013;28;20059;-66
2022/10/07 10:45:36;;;;;;;1.10;0.60;;;16.10;95.20;;;;;;5035497;28;19921;-65
2022/10/07 10:48:14;;;;;;;3.60;1.00;;;16.20;95.50;;;;;;5035502;28;20041;-65
2022/10/07 10:51:27;;;;;;;5.80;0.88;;;16.20;95.30;;;;;;5035519;28;20389;-66
2022/10/07 10:53:58;;;;;;;1.27;0.70;;;16.30;94.60;;;;;;5017330;28;20056;-65
2022/10/07 10:56:53;;;;;;;4.05;0.70;;;16.40;94.00;;;;;;5035380;28;20531;-66
2022/10/07 10:59:31;;;;;;;5.30;0.85;;;16.40;94.30;;;;;;4982455;28;20041;-65
2022/10/07 11:02:11;;;;;;;2.33;1.02;;;16.40;94.10;;;;;;5017152;28;20045;-65
2022/10/07 11:05:01;;;;;;;6.45;0.82;;;16.40;93.90;;;;;;5000755;28;20069;-65
2022/10/07 11:07:36;;;;;;;4.32;0.90;;;16.50;93.70;;;;;;5017188;28;20037;-65
2022/10/07 11:10:20;;;;;;;2.53;0.75;;;16.50;94.80;;;;;;5034774;28;20143;-65
2022/10/07 11:12:58;;;;;;;4.03;0.95;;;16.40;93.90;;;;;;5034869;28;20267;-65
2022/10/07 11:15:31;;;;;;;6.07;0.70;;;16.40;93.30;;;;;;5017004;28;20092;-67
2022/10/07 11:18:04;;;;;;;5.32;1.10;;;16.40;94.20;;;;;;5016850;28;20179;-66
2022/10/07 11:20:34;;;;;;;7.15;0.95;;;16.30;92.50;;;;;;5034525;28;20041;-67
2022/10/07 11:23:13;;;;;;;8.05;1.02;;;16.30;93.00;;;;;;5034528;28;20128;-65
2022/10/07 11:26:09;;;;;;;2.35;0.70;;;16.30;92.70;;;;;;5034502;28;20037;-65
2022/10/07 11:28:38;;;;;;;2.13;0.95;;;16.20;90.50;;;;;;5034780;28;20060;-66
2022/10/07 11:31:16;;;;;;;2.08;0.70;;;16.30;92.60;;;;;;5033578;28;20127;-65
2022/10/07 11:33:53;;;;;;;7.53;0.85;;;16.40;91.90;;;;;;5016791;28;20136;-66
2022/10/07 11:36:43;;;;;;;5.18;0.70;;;16.60;93.70;;;;;;5034253;28;20037;-66
2022/10/07 11:39:09;;;;;;;1.70;1.08;;;16.70;92.50;;;;;;5034532;28;20037;-65
2022/10/07 11:41:56;;;;;;;4.03;0.63;;;16.80;92.00;;;;;;5032890;28;20131;-65
2022/10/07 11:44:39;;;;;;;2.00;0.85;;;16.80;91.90;;;;;;5034239;28;20068;-66
2022/10/07 11:47:11;;;;;;;2.42;0.90;;;16.90;89.40;;;;;;5034435;28;20480;-64
2022/10/07 11:49:45;;;;;;;5.28;1.25;;;16.80;88.50;;;;;;5034369;28;20033;-65
2022/10/07 11:52:25;;;;;;;5.65;1.35;;;16.80;91.10;;;;;;5034327;28;20068;-65
2022/10/07 11:55:03;;;;;;;3.58;0.82;;;16.80;89.90;;;;;;5016199;28;20045;-65
2022/10/07 11:57:36;;;;;;;2.33;0.95;;;16.80;91.30;;;;;;5034177;28;20611;-66
2022/10/07 12:00:08;;;;;;;1.70;0.80;;;16.90;90.30;;;;;;5033891;28;20049;-66
2022/10/07 12:02:44;;;;;;;2.30;0.80;;;16.90;92.00;;;;;;5034070;28;20091;-65
2022/10/07 12:05:35;;;;;;;7.13;1.50;;;16.90;92.10;;;;;;5034079;28;20132;-65
2022/10/07 12:08:24;;;;;;;2.15;0.93;;;17.10;91.10;;;;;;5033767;28;20041;-66
2022/10/07 12:10:54;;;;;;;7.50;1.52;;;17.30;91.60;;;;;;5033993;28;20412;-66
2022/10/07 12:13:20;;;;;;;4.13;1.13;;;17.30;91.50;;;;;;5033649;28;20048;-66
2022/10/07 12:15:48;;;;;;;6.75;0.70;;;17.50;90.00;;;;;;5016004;28;20065;-66
2022/10/07 12:18:16;;;;;;;2.88;0.68;;;17.50;85.60;;;;;;5033441;28;20053;-65
2022/10/07 12:20:53;;;;;;;8.85;0.98;;;17.60;90.40;;;;;;5033741;28;20128;-65
2022/10/07 12:23:22;;;;;;;2.88;0.85;;;17.50;85.30;;;;;;5033844;28;20038;-63
2022/10/07 12:25:59;;;;;;;2.53;0.70;;;17.40;87.90;;;;;;4999290;28;20048;-65
2022/10/07 12:28:25;;;;;;;1.65;0.75;;;17.30;86.20;;;;;;5015566;28;20044;-63
2022/10/07 12:30:59;;;;;;;6.82;0.80;;;17.20;87.90;;;;;;5033322;28;20045;-65
2022/10/07 12:33:42;;;;;;;2.38;0.52;;;17.20;90.20;;;;;;5033471;28;20043;-64
2022/10/07 12:36:26;;;;;;;3.17;0.85;;;17.20;90.00;;;;;;5033139;28;20076;-65
2022/10/07 12:38:55;;;;;;;1.40;0.68;;;17.20;89.40;;;;;;5033128;28;20053;-67
2022/10/07 12:41:29;;;;;;;4.30;1.08;;;17.20;90.20;;;;;;5015354;28;20045;-66
2022/10/07 12:43:58;;;;;;;5.95;0.80;;;17.20;87.80;;;;;;5015454;28;20079;-65
2022/10/07 12:46:29;;;;;;;1.75;0.60;;;17.20;85.30;;;;;;5033066;28;20040;-64
2022/10/07 12:49:03;;;;;;;3.70;0.52;;;17.20;89.00;;;;;;5033299;28;20121;-65
2022/10/07 12:51:38;;;;;;;3.88;0.63;;;17.20;87.90;;;;;;5033485;28;20163;-64
2022/10/07 12:54:13;;;;;;;1.75;0.65;;;17.20;84.20;;;;;;5033291;28;20075;-65
2022/10/07 12:56:42;;;;;;;2.80;1.20;;;17.10;84.10;;;;;;5015197;28;20045;-66
2022/10/07 13:02:30;;;;;;;4.90;1.00;;;17.00;80.40;;;;;;5032968;28;20119;-65
2022/10/07 13:05:26;;;;;;;2.85;0.50;;;17.10;82.10;;;;;;5014837;28;20049;-65
2022/10/07 13:07:55;;;;;;;3.75;0.68;;;17.00;82.10;;;;;;5032650;28;20064;-65
2022/10/07 13:10:37;;;;;;;1.98;0.75;;;17.00;81.50;;;;;;5032880;28;20034;-65
2022/10/07 13:13:11;;;;;;;2.75;0.57;;;17.00;79.40;;;;;;5032920;28;20092;-65
2022/10/07 13:15:50;;;;;;;4.95;0.80;;;17.00;84.70;;;;;;5032727;28;20432;-65
2022/10/07 13:18:40;;;;;;;1.35;0.45;;;17.00;85.00;;;;;;5032121;28;20074;-65
2022/10/07 13:21:45;;;;;;;3.03;0.93;;;17.00;85.20;;;;;;5032164;28;20049;-65